Time;durP1;ratioP1;P1;durP2;ratioP2;P2;SDS_P1;SDS_P2;PMS_P1;PMS_P2;Temp;Humidity;BMP_temperature;BMP_pressure;BME280_temperature;BME280_humidity;BME280_pressure;Samples;Min_cycle;Max_cycle;Signal;HPM_P1;HPM_P2
2024/02/09 00:00:55;;;;;;;11.67;11.03;;;12.40;30.20;;;;;;6251480;22;20401;-79
2024/02/09 00:03:25;;;;;;;12.53;11.40;;;12.40;30.30;;;;;;6279145;22;20423;-79
2024/02/09 00:05:50;;;;;;;11.33;9.90;;;12.40;30.20;;;;;;6280176;22;20402;-79
2024/02/09 00:08:21;;;;;;;11.60;10.70;;;12.40;30.50;;;;;;6280276;22;20369;-79
2024/02/09 00:10:47;;;;;;;12.80;10.73;;;12.30;30.20;;;;;;6253420;22;20217;-79
2024/02/09 00:13:14;;;;;;;11.10;9.80;;;12.30;30.70;;;;;;6253830;22;20408;-79
2024/02/09 00:15:45;;;;;;;10.57;9.67;;;12.30;30.30;;;;;;6280193;22;20413;-79
2024/02/09 00:18:20;;;;;;;11.23;10.43;;;12.40;30.00;;;;;;6280117;22;20358;-79
2024/02/09 00:20:47;;;;;;;11.27;10.37;;;12.40;30.00;;;;;;6279969;22;20408;-79
2024/02/09 00:23:13;;;;;;;12.00;10.87;;;12.40;30.00;;;;;;6280418;22;20365;-79
2024/02/09 00:25:40;;;;;;;10.97;10.17;;;12.40;30.50;;;;;;6252541;22;20389;-79
2024/02/09 00:28:06;;;;;;;13.97;11.20;;;12.40;30.10;;;;;;6251227;22;20763;-79
2024/02/09 00:30:32;;;;;;;11.50;10.30;;;12.40;30.40;;;;;;6279813;22;20401;-79
2024/02/09 00:33:03;;;;;;;11.70;10.50;;;12.40;30.30;;;;;;6279659;22;20374;-79
2024/02/09 00:35:28;;;;;;;11.40;10.37;;;12.50;30.00;;;;;;6280003;22;20412;-79
2024/02/09 00:37:55;;;;;;;12.03;10.83;;;12.50;29.90;;;;;;6252095;22;20851;-79
2024/02/09 00:40:23;;;;;;;16.20;10.57;;;12.50;29.80;;;;;;6252404;22;20273;-79
2024/02/09 00:42:51;;;;;;;10.37;9.53;;;12.40;30.00;;;;;;6280038;22;20757;-79
2024/02/09 00:45:18;;;;;;;10.53;9.73;;;12.50;29.90;;;;;;6252407;22;20389;-79
2024/02/09 00:47:43;;;;;;;10.97;10.03;;;12.50;29.80;;;;;;6251866;22;20825;-79
2024/02/09 00:50:10;;;;;;;12.80;10.90;;;12.50;30.00;;;;;;6252708;22;20405;-79
2024/02/09 00:52:35;;;;;;;10.83;9.83;;;12.60;29.50;;;;;;6280540;22;20151;-79
2024/02/09 00:55:01;;;;;;;10.90;10.00;;;12.60;29.30;;;;;;6255318;22;20865;-79
2024/02/09 00:57:26;;;;;;;11.43;10.60;;;12.60;29.30;;;;;;6280271;22;20143;-78
2024/02/09 00:59:52;;;;;;;11.57;10.63;;;12.50;29.60;;;;;;6253088;22;20174;-78
2024/02/09 01:02:19;;;;;;;10.93;10.17;;;12.50;29.30;;;;;;6252820;22;20151;-78
2024/02/09 01:04:45;;;;;;;11.33;10.30;;;12.50;29.60;;;;;;6281565;22;20385;-78
2024/02/09 01:07:10;;;;;;;12.10;11.10;;;12.50;29.50;;;;;;6279256;22;20373;-79
2024/02/09 01:09:37;;;;;;;11.83;10.73;;;12.40;29.80;;;;;;6251729;22;20178;-78
2024/02/09 02:44:46;;;;;;;11.40;10.43;;;12.10;36.00;;;;;;6279226;22;20373;-78
2024/02/09 02:47:12;;;;;;;11.00;10.13;;;12.00;36.40;;;;;;6250650;22;20159;-79
2024/02/09 03:06:04;;;;;;;10.90;9.90;;;11.70;39.60;;;;;;6280809;22;20352;-77
2024/02/09 03:08:30;;;;;;;11.27;10.37;;;11.70;39.20;;;;;;6280280;22;20452;-79
2024/02/09 03:10:56;;;;;;;10.30;9.50;;;11.70;40.30;;;;;;6280401;22;20417;-78
2024/02/09 03:13:21;;;;;;;11.17;10.00;;;11.80;40.20;;;;;;6281033;22;20158;-78
2024/02/09 03:15:47;;;;;;;10.43;9.47;;;12.00;39.90;;;;;;6253928;22;20190;-78
2024/02/09 03:18:17;;;;;;;10.97;10.00;;;12.10;38.70;;;;;;6282312;22;20151;-78
2024/02/09 03:20:46;;;;;;;14.00;9.23;;;12.00;38.80;;;;;;6279241;22;20424;-77
2024/02/09 03:23:16;;;;;;;10.83;9.47;;;12.00;39.20;;;;;;6251413;22;20464;-77
2024/02/09 03:25:42;;;;;;;10.47;9.47;;;12.00;39.30;;;;;;6279135;22;20688;-78
2024/02/09 03:28:08;;;;;;;10.57;9.60;;;12.00;39.10;;;;;;6278053;22;20378;-77
2024/02/09 03:30:34;;;;;;;9.53;8.83;;;11.90;39.00;;;;;;6251377;22;20174;-78
2024/02/09 03:32:59;;;;;;;10.50;9.50;;;11.80;39.80;;;;;;6279149;22;20770;-78
2024/02/09 03:35:25;;;;;;;9.57;8.80;;;11.80;40.30;;;;;;6251757;22;20237;-78
2024/02/09 03:37:51;;;;;;;10.03;9.13;;;11.80;41.00;;;;;;6278248;22;20147;-78
2024/02/09 03:40:16;;;;;;;10.50;9.60;;;11.70;40.80;;;;;;6277390;22;20167;-78
2024/02/09 03:42:43;;;;;;;9.53;8.80;;;11.70;41.80;;;;;;6250360;22;20154;-78
2024/02/09 03:45:09;;;;;;;9.90;9.10;;;11.70;41.60;;;;;;6277940;22;20155;-77
2024/02/09 03:47:34;;;;;;;9.43;8.63;;;11.70;42.50;;;;;;6249654;22;20439;-78
2024/02/09 03:50:00;;;;;;;9.27;8.77;;;11.60;43.00;;;;;;6277682;22;20232;-77
2024/02/09 03:52:27;;;;;;;8.97;8.37;;;11.50;43.40;;;;;;6278277;22;20147;-77
2024/02/09 03:54:54;;;;;;;9.30;8.60;;;11.40;44.20;;;;;;6250883;22;20193;-77
2024/02/09 03:57:29;;;;;;;9.17;8.33;;;11.40;44.60;;;;;;6256866;22;20373;-77
2024/02/09 03:59:55;;;;;;;9.07;8.47;;;11.40;44.90;;;;;;6303524;22;20408;-78
2024/02/09 04:02:21;;;;;;;10.00;9.27;;;11.50;45.40;;;;;;6302984;22;20369;-78
2024/02/09 04:04:48;;;;;;;10.50;9.57;;;11.50;44.80;;;;;;6296760;22;20399;-78
2024/02/09 04:07:15;;;;;;;10.17;9.10;;;11.50;45.00;;;;;;6286646;22;20373;-78
2024/02/09 04:09:41;;;;;;;10.37;9.60;;;11.60;44.80;;;;;;6251957;22;20748;-77
2024/02/09 04:12:08;;;;;;;10.13;9.23;;;11.60;44.40;;;;;;6253049;22;20465;-78
2024/02/09 04:14:34;;;;;;;10.80;9.97;;;11.60;44.10;;;;;;6252237;22;20971;-77
2024/02/09 04:17:00;;;;;;;9.83;9.13;;;11.60;44.80;;;;;;6279183;22;20380;-77
2024/02/09 04:19:26;;;;;;;9.30;8.70;;;11.60;44.30;;;;;;6280236;22;20385;-78
2024/02/09 04:21:52;;;;;;;10.10;9.20;;;11.60;43.80;;;;;;6279999;22;20149;-77
2024/02/09 04:24:23;;;;;;;9.20;8.63;;;11.70;43.40;;;;;;6252966;22;20782;-77
2024/02/09 04:26:51;;;;;;;8.87;8.40;;;11.90;43.30;;;;;;6252511;22;20374;-77
2024/02/09 04:29:17;;;;;;;9.60;8.90;;;12.10;43.40;;;;;;6253246;22;20401;-77
2024/02/09 04:31:43;;;;;;;10.43;9.63;;;12.30;42.50;;;;;;6280222;22;20403;-77
2024/02/09 04:34:12;;;;;;;8.97;8.43;;;12.50;41.50;;;;;;6253527;22;20855;-77
2024/02/09 04:36:42;;;;;;;9.77;8.97;;;12.50;40.20;;;;;;6279777;22;20409;-77
2024/02/09 04:39:10;;;;;;;9.40;8.70;;;12.60;40.40;;;;;;6254088;22;20435;-77
2024/02/09 04:41:49;;;;;;;9.17;8.60;;;12.60;39.50;;;;;;6253184;22;20436;-77
2024/02/09 04:44:14;;;;;;;9.63;8.90;;;12.70;39.30;;;;;;6280820;22;20381;-77
2024/02/09 04:46:42;;;;;;;9.60;9.10;;;12.80;38.40;;;;;;6280301;22;20405;-77
2024/02/09 04:49:10;;;;;;;9.03;8.63;;;12.80;37.40;;;;;;6252722;22;20166;-77
2024/02/09 04:51:43;;;;;;;9.43;9.03;;;12.50;37.70;;;;;;6280086;22;20492;-77
2024/02/09 04:54:09;;;;;;;8.67;8.10;;;12.40;38.90;;;;;;6252895;22;20386;-77
2024/02/09 04:56:34;;;;;;;9.67;9.17;;;12.30;38.40;;;;;;6279177;22;20444;-77
2024/02/09 04:59:04;;;;;;;9.40;8.90;;;12.20;38.60;;;;;;6293869;22;20397;-77
2024/02/09 05:01:31;;;;;;;9.10;8.60;;;12.10;39.40;;;;;;6251731;22;20164;-78
2024/02/09 05:04:01;;;;;;;8.13;7.73;;;12.00;40.00;;;;;;6251576;22;20866;-77
2024/02/09 05:06:28;;;;;;;8.40;8.00;;;12.00;40.80;;;;;;6252225;22;20385;-77
2024/02/09 05:08:56;;;;;;;8.67;8.10;;;12.00;40.50;;;;;;6250843;22;20402;-77
2024/02/09 05:11:22;;;;;;;8.10;7.70;;;12.00;40.90;;;;;;6278650;22;20480;-77
2024/02/09 05:13:49;;;;;;;7.93;7.53;;;12.00;39.80;;;;;;6251880;22;20382;-77
2024/02/09 05:16:18;;;;;;;7.63;7.30;;;12.10;39.90;;;;;;6279155;22;20417;-77
2024/02/09 05:18:44;;;;;;;8.10;7.80;;;12.10;39.50;;;;;;6253440;22;20378;-77
2024/02/09 05:21:09;;;;;;;7.50;7.00;;;12.10;39.90;;;;;;6279229;22;20451;-77
2024/02/09 05:23:35;;;;;;;7.70;7.20;;;12.20;39.70;;;;;;6251427;22;20377;-77
2024/02/09 05:26:00;;;;;;;7.80;7.40;;;12.20;38.20;;;;;;6251547;22;20654;-77
2024/02/09 05:28:26;;;;;;;8.43;7.93;;;12.10;38.60;;;;;;6277139;22;20627;-77
2024/02/09 05:30:52;;;;;;;7.77;7.40;;;12.10;39.40;;;;;;6251337;22;20174;-77
2024/02/09 05:33:17;;;;;;;7.57;7.10;;;12.10;39.00;;;;;;6250600;22;20391;-77
2024/02/09 05:35:43;;;;;;;7.87;7.47;;;12.20;39.40;;;;;;6251246;22;20183;-78
2024/02/09 05:38:09;;;;;;;7.40;7.10;;;12.30;38.90;;;;;;6277672;22;20147;-77
2024/02/09 05:40:35;;;;;;;7.50;7.30;;;12.20;37.90;;;;;;6277960;22;20226;-77
2024/02/09 05:43:00;;;;;;;7.43;7.03;;;12.10;38.50;;;;;;6279166;22;20365;-77
2024/02/09 05:45:27;;;;;;;7.30;7.00;;;12.10;38.40;;;;;;6282393;22;20210;-77
2024/02/09 05:47:53;;;;;;;7.40;7.10;;;12.00;38.80;;;;;;6253439;22;20155;-77
2024/02/09 05:50:21;;;;;;;7.40;6.90;;;11.90;39.10;;;;;;6253494;22;20409;-77
2024/02/09 05:52:47;;;;;;;7.47;6.77;;;11.90;39.30;;;;;;6277377;22;20465;-77
2024/02/09 05:55:13;;;;;;;7.10;6.80;;;11.80;39.90;;;;;;6250715;22;20480;-77
2024/02/09 05:57:38;;;;;;;7.60;7.30;;;11.80;39.60;;;;;;6276705;22;20374;-77
2024/02/09 06:00:07;;;;;;;6.60;6.40;;;11.80;39.30;;;;;;6277115;22;20707;-77
2024/02/09 06:02:33;;;;;;;6.73;6.43;;;11.90;39.60;;;;;;6278505;22;20147;-77
2024/02/09 06:04:59;;;;;;;7.73;7.30;;;11.90;39.30;;;;;;6281628;22;20377;-77
2024/02/09 06:07:27;;;;;;;7.67;7.37;;;11.80;38.60;;;;;;6284022;22;20376;-77
2024/02/09 06:09:54;;;;;;;8.83;8.23;;;11.80;39.10;;;;;;6253520;22;20186;-77
2024/02/09 06:12:20;;;;;;;8.43;8.03;;;11.90;39.40;;;;;;6277178;22;20369;-77
2024/02/09 06:14:45;;;;;;;8.10;7.80;;;11.90;38.70;;;;;;6250008;22;20583;-78
2024/02/09 06:17:13;;;;;;;8.50;8.00;;;11.90;38.40;;;;;;6249623;22;20554;-76
2024/02/09 06:19:41;;;;;;;9.00;8.50;;;11.90;38.30;;;;;;6248320;22;20177;-77
2024/02/09 06:22:10;;;;;;;8.60;8.20;;;12.00;38.10;;;;;;6277701;22;20393;-78
2024/02/09 06:24:35;;;;;;;8.00;7.70;;;12.00;37.80;;;;;;6250986;22;20688;-77
2024/02/09 06:27:01;;;;;;;8.30;8.00;;;12.00;38.00;;;;;;6278572;22;20465;-77
2024/02/09 06:29:27;;;;;;;7.30;7.00;;;12.00;37.40;;;;;;6277449;22;20170;-78
2024/02/09 06:31:57;;;;;;;8.00;7.60;;;12.10;37.00;;;;;;6251317;22;20155;-76
2024/02/09 06:34:23;;;;;;;7.40;7.10;;;12.10;37.20;;;;;;6253676;22;20381;-77
2024/02/09 06:36:48;;;;;;;6.97;6.77;;;12.10;36.50;;;;;;6257336;22;20428;-78
2024/02/09 06:39:15;;;;;;;7.23;6.83;;;12.10;36.90;;;;;;6254105;22;20409;-77
2024/02/09 06:41:41;;;;;;;7.60;7.40;;;12.00;36.50;;;;;;6260880;22;20151;-77
2024/02/09 06:44:06;;;;;;;7.27;6.93;;;12.00;36.80;;;;;;6293926;22;20480;-78
2024/02/09 06:46:32;;;;;;;7.70;7.50;;;12.00;36.90;;;;;;6280696;22;20592;-77
2024/02/09 06:48:59;;;;;;;8.27;7.87;;;12.00;36.70;;;;;;6252620;22;20155;-78
2024/02/09 06:51:25;;;;;;;7.80;7.50;;;11.90;36.60;;;;;;6253018;22;20161;-77
2024/02/09 06:53:51;;;;;;;7.70;7.50;;;11.90;37.20;;;;;;6277448;22;20456;-76
2024/02/09 06:56:17;;;;;;;7.83;7.53;;;11.90;37.50;;;;;;6279478;22;20765;-77
2024/02/09 06:58:45;;;;;;;7.20;6.90;;;11.90;36.90;;;;;;6255334;22;20374;-77
2024/02/09 07:01:10;;;;;;;7.60;7.10;;;11.90;36.90;;;;;;6282825;22;20190;-77
2024/02/09 07:03:37;;;;;;;7.70;7.30;;;11.90;36.60;;;;;;6253177;22;20453;-77
2024/02/09 07:06:04;;;;;;;6.90;6.50;;;11.90;36.80;;;;;;6243627;22;20162;-77
2024/02/09 07:08:36;;;;;;;6.43;6.23;;;11.90;37.30;;;;;;6247445;22;20388;-77
2024/02/09 07:11:03;;;;;;;6.97;6.63;;;11.90;37.00;;;;;;6274256;22;20416;-77
2024/02/09 07:13:28;;;;;;;6.67;6.47;;;11.80;37.60;;;;;;6277172;22;20866;-78
2024/02/09 07:15:54;;;;;;;6.90;6.60;;;11.80;38.70;;;;;;6279528;22;20404;-77
2024/02/09 07:18:19;;;;;;;6.80;6.50;;;11.80;38.90;;;;;;6250332;22;20481;-79
2024/02/09 07:20:45;;;;;;;6.47;6.27;;;11.80;39.20;;;;;;6250041;22;20249;-77
2024/02/09 07:23:10;;;;;;;6.50;6.20;;;11.80;39.50;;;;;;6276676;22;20208;-77
2024/02/09 07:25:36;;;;;;;6.33;6.03;;;11.90;39.30;;;;;;6277414;22;20177;-77
2024/02/09 07:28:04;;;;;;;7.03;6.73;;;11.90;38.60;;;;;;6277611;22;20150;-77
2024/02/09 07:30:30;;;;;;;6.60;6.40;;;12.00;38.90;;;;;;6250737;22;20186;-78
2024/02/09 07:32:59;;;;;;;6.50;6.30;;;12.00;37.20;;;;;;6277599;22;20374;-78
2024/02/09 07:35:25;;;;;;;7.50;7.20;;;12.00;37.70;;;;;;6250910;22;20189;-79
2024/02/09 07:37:50;;;;;;;9.00;8.50;;;12.00;37.50;;;;;;6275232;22;20366;-80
2024/02/09 07:40:19;;;;;;;7.13;6.93;;;12.00;37.90;;;;;;6253899;22;20421;-79
2024/02/09 07:42:45;;;;;;;7.63;7.23;;;12.00;37.70;;;;;;6280984;22;20147;-78
2024/02/09 07:45:15;;;;;;;7.67;7.27;;;12.00;37.80;;;;;;6280951;22;20374;-77
2024/02/09 07:47:41;;;;;;;7.47;7.07;;;11.90;38.10;;;;;;6277710;22;20141;-79
2024/02/09 07:50:07;;;;;;;7.53;6.97;;;11.90;38.00;;;;;;6274390;22;20393;-78
2024/02/09 07:52:35;;;;;;;7.57;7.17;;;12.00;37.70;;;;;;6246218;22;20443;-77
2024/02/09 07:55:01;;;;;;;7.30;6.97;;;12.00;37.70;;;;;;6274498;22;20805;-78
2024/02/09 07:57:26;;;;;;;8.00;7.60;;;12.00;37.10;;;;;;6275204;22;20381;-77
2024/02/09 07:59:52;;;;;;;7.57;7.27;;;12.00;37.60;;;;;;6275304;22;20177;-82
2024/02/09 08:02:18;;;;;;;7.77;7.27;;;12.00;36.80;;;;;;6252720;22;20163;-80
2024/02/09 08:04:44;;;;;;;7.50;7.20;;;12.00;35.70;;;;;;6279241;22;20523;-78
2024/02/09 08:07:09;;;;;;;6.80;6.50;;;12.00;36.00;;;;;;6250390;22;20475;-78
2024/02/09 08:09:36;;;;;;;6.83;6.50;;;12.00;35.40;;;;;;6240570;22;1026718;-78
2024/02/09 08:12:01;;;;;;;7.00;6.70;;;12.10;35.30;;;;;;6251213;22;20145;-79
2024/02/09 08:14:27;;;;;;;6.90;6.70;;;12.20;34.80;;;;;;6251281;22;20410;-81
2024/02/09 08:16:53;;;;;;;8.10;7.80;;;12.20;33.40;;;;;;6287977;22;20174;-77
2024/02/09 08:19:19;;;;;;;8.43;8.10;;;12.30;33.50;;;;;;6256247;22;20174;-78
2024/02/09 08:21:44;;;;;;;8.37;8.07;;;12.30;34.00;;;;;;6280198;22;20150;-78
2024/02/09 08:24:14;;;;;;;8.90;8.50;;;12.40;34.00;;;;;;6261844;22;20150;-78
2024/02/09 08:26:40;;;;;;;8.87;8.57;;;12.40;33.60;;;;;;6280837;22;20159;-79
2024/02/09 08:29:13;;;;;;;8.97;8.20;;;12.50;34.40;;;;;;6252475;22;20381;-78
2024/02/09 08:31:38;;;;;;;7.63;7.33;;;12.70;34.30;;;;;;6279920;22;20143;-79
2024/02/09 08:34:04;;;;;;;8.00;7.70;;;12.70;33.90;;;;;;6278689;22;20452;-77
2024/02/09 08:36:30;;;;;;;8.73;8.33;;;12.80;32.40;;;;;;6279170;22;20167;-77
2024/02/09 08:38:55;;;;;;;8.80;8.23;;;12.90;32.20;;;;;;6276038;22;20714;-77
2024/02/09 08:41:21;;;;;;;8.33;8.03;;;13.00;32.10;;;;;;6279176;22;20135;-78
2024/02/09 08:43:47;;;;;;;8.63;8.23;;;13.10;32.30;;;;;;6247427;22;20147;-78
2024/02/09 08:46:13;;;;;;;9.10;8.60;;;13.10;31.50;;;;;;6277972;22;20490;-77
2024/02/09 08:49:01;;;;;;;8.60;8.10;;;13.10;32.30;;;;;;6281026;22;20383;-78
2024/02/09 08:51:26;;;;;;;9.43;8.93;;;13.00;30.40;;;;;;6249486;22;20609;-78
2024/02/09 08:53:52;;;;;;;8.27;7.90;;;13.00;30.70;;;;;;6278265;22;20422;-79
2024/02/09 08:56:17;;;;;;;9.30;8.60;;;13.00;30.10;;;;;;6278436;22;20178;-79
2024/02/09 08:58:46;;;;;;;9.70;9.00;;;12.90;30.20;;;;;;6257176;22;20154;-80
2024/02/09 09:01:11;;;;;;;9.03;8.70;;;13.00;30.60;;;;;;6239715;22;20182;-80
2024/02/09 09:03:37;;;;;;;9.03;8.60;;;13.00;31.30;;;;;;6291459;22;20519;-79
2024/02/09 09:06:04;;;;;;;9.23;8.77;;;13.10;30.90;;;;;;6290624;22;20871;-79
2024/02/09 09:08:30;;;;;;;9.87;9.27;;;13.20;30.80;;;;;;6289970;22;20143;-79
2024/02/09 09:10:56;;;;;;;8.63;8.20;;;13.20;30.20;;;;;;6255057;22;20424;-80
2024/02/09 09:13:21;;;;;;;8.87;8.57;;;13.20;30.70;;;;;;6277559;22;20377;-78
2024/02/09 09:15:48;;;;;;;9.40;9.00;;;13.20;29.20;;;;;;6250385;22;20182;-79
2024/02/09 09:18:13;;;;;;;9.50;9.10;;;13.20;29.60;;;;;;6280418;22;20169;-77
2024/02/09 09:20:39;;;;;;;9.50;9.10;;;13.30;29.60;;;;;;6280982;22;20385;-78
2024/02/09 09:23:04;;;;;;;8.83;8.33;;;13.30;29.50;;;;;;6282685;22;20173;-78
2024/02/09 09:25:30;;;;;;;8.83;8.30;;;13.40;29.90;;;;;;6252028;22;20173;-79
2024/02/09 09:27:58;;;;;;;8.67;8.37;;;13.50;29.30;;;;;;6279596;22;20147;-78
2024/02/09 09:30:24;;;;;;;9.70;9.30;;;13.50;28.20;;;;;;6260098;22;20237;-78
2024/02/09 09:32:49;;;;;;;9.23;8.60;;;13.50;28.10;;;;;;6280751;22;20373;-79
2024/02/09 09:35:15;;;;;;;8.83;8.43;;;13.50;28.20;;;;;;6279519;22;20471;-79
2024/02/09 09:37:41;;;;;;;8.30;7.83;;;13.60;28.30;;;;;;6252859;22;20329;-80
2024/02/09 09:40:10;;;;;;;8.77;8.27;;;13.60;27.60;;;;;;6254276;22;20177;-79
2024/02/09 09:42:36;;;;;;;8.73;8.40;;;13.60;28.00;;;;;;6255879;22;20472;-78
2024/02/09 09:45:08;;;;;;;8.97;8.50;;;13.60;27.60;;;;;;6250337;22;20393;-78
2024/02/09 09:47:38;;;;;;;9.30;8.70;;;13.60;27.40;;;;;;6279908;22;20135;-79
2024/02/09 09:50:06;;;;;;;8.10;7.60;;;13.60;27.50;;;;;;6274630;22;20411;-78
2024/02/09 09:52:35;;;;;;;9.27;8.73;;;13.60;27.20;;;;;;6277188;22;20726;-78
2024/02/09 09:55:01;;;;;;;8.17;7.80;;;13.70;27.40;;;;;;6249526;22;20495;-78
2024/02/09 09:57:27;;;;;;;8.60;8.10;;;13.70;26.90;;;;;;6247760;22;20806;-77
2024/02/09 09:59:53;;;;;;;8.50;7.80;;;13.70;26.90;;;;;;6278066;22;20401;-77
2024/02/09 10:02:21;;;;;;;7.97;7.67;;;13.70;26.80;;;;;;6282431;22;20453;-77
2024/02/09 10:04:46;;;;;;;7.90;7.50;;;13.70;26.80;;;;;;6280217;22;20449;-78
2024/02/09 10:07:15;;;;;;;8.00;7.70;;;13.70;26.60;;;;;;6281693;22;20388;-78
2024/02/09 10:09:44;;;;;;;8.50;8.03;;;13.70;26.80;;;;;;6289437;22;20197;-80
2024/02/09 10:12:10;;;;;;;8.50;7.80;;;13.70;26.50;;;;;;6283419;22;20383;-79
2024/02/09 10:14:42;;;;;;;8.27;7.87;;;13.70;26.90;;;;;;6311693;22;20371;-79
2024/02/09 10:17:11;;;;;;;9.10;8.50;;;13.80;27.10;;;;;;6311331;22;20873;-79
2024/02/09 10:19:38;;;;;;;8.20;7.90;;;13.80;27.40;;;;;;6301461;22;20782;-79
2024/02/09 10:22:04;;;;;;;9.40;9.00;;;13.80;26.50;;;;;;6281060;22;20365;-79
2024/02/09 10:24:30;;;;;;;8.17;7.87;;;13.80;26.20;;;;;;6254378;22;20377;-79
2024/02/09 10:26:56;;;;;;;8.40;8.00;;;13.90;26.30;;;;;;6251372;22;20388;-80
2024/02/09 10:29:24;;;;;;;7.90;7.50;;;13.90;26.40;;;;;;6280514;22;20171;-80
2024/02/09 10:31:52;;;;;;;9.40;8.73;;;13.90;25.80;;;;;;6253607;22;20409;-80
2024/02/09 10:34:17;;;;;;;8.93;8.60;;;13.90;25.80;;;;;;6280684;22;20369;-80
2024/02/09 10:36:43;;;;;;;8.77;8.20;;;13.80;25.80;;;;;;6253194;22;20425;-79
2024/02/09 10:39:08;;;;;;;8.50;8.00;;;13.90;26.50;;;;;;6254017;22;20146;-79
2024/02/09 10:41:36;;;;;;;8.23;7.93;;;13.90;26.40;;;;;;6252515;22;20150;-80
2024/02/09 10:44:02;;;;;;;9.00;8.60;;;13.90;25.80;;;;;;6280965;22;20182;-80
2024/02/09 10:46:29;;;;;;;9.80;9.10;;;14.00;25.90;;;;;;6275425;22;20361;-79
2024/02/09 10:49:00;;;;;;;9.67;9.27;;;14.00;26.10;;;;;;6275441;22;20230;-79
2024/02/09 10:51:29;;;;;;;8.13;7.67;;;14.00;25.70;;;;;;6276828;22;20906;-78
2024/02/09 10:54:23;;;;;;;8.17;7.87;;;14.00;25.90;;;;;;6277774;22;20362;-79
2024/02/09 10:56:52;;;;;;;8.03;7.63;;;14.00;25.90;;;;;;6274895;22;20749;-79
2024/02/09 10:59:22;;;;;;;7.90;7.50;;;14.00;25.60;;;;;;6248335;22;20729;-78
2024/02/09 11:01:48;;;;;;;6.83;6.53;;;14.10;25.20;;;;;;6275749;22;20434;-78
2024/02/09 11:04:15;;;;;;;7.70;7.20;;;14.10;25.60;;;;;;6249827;22;20393;-79
2024/02/09 11:06:42;;;;;;;8.20;7.30;;;14.10;26.00;;;;;;6249762;22;20393;-78
2024/02/09 11:09:10;;;;;;;7.80;7.40;;;14.10;25.60;;;;;;6249744;22;20396;-78
2024/02/09 11:11:38;;;;;;;8.67;8.17;;;14.20;25.50;;;;;;6276957;22;20749;-78
2024/02/09 11:14:08;;;;;;;8.67;7.90;;;14.20;24.70;;;;;;6252061;22;20438;-78
2024/02/09 11:16:45;;;;;;;9.23;8.80;;;14.20;24.70;;;;;;6278866;22;20424;-79
2024/02/09 11:19:13;;;;;;;7.60;7.20;;;14.20;24.80;;;;;;6277773;22;20365;-79
2024/02/09 11:21:43;;;;;;;7.63;7.23;;;14.20;24.60;;;;;;6278762;22;20393;-79
2024/02/09 11:24:09;;;;;;;7.40;7.00;;;14.30;25.00;;;;;;6277096;22;20374;-78
2024/02/09 11:26:38;;;;;;;8.80;8.30;;;14.30;24.20;;;;;;6249827;22;20377;-80
2024/02/09 11:29:04;;;;;;;11.00;10.50;;;14.30;24.00;;;;;;6277907;22;20230;-80
2024/02/09 11:31:32;;;;;;;8.30;7.90;;;14.30;24.00;;;;;;6279544;22;20376;-79
2024/02/09 11:33:59;;;;;;;7.50;7.17;;;14.30;23.80;;;;;;6251783;22;20785;-79
2024/02/09 11:36:24;;;;;;;7.27;6.87;;;14.30;23.80;;;;;;6253137;22;20417;-80
2024/02/09 11:38:50;;;;;;;7.57;7.17;;;14.30;24.10;;;;;;6280809;22;20389;-80
2024/02/09 11:41:16;;;;;;;7.80;7.50;;;14.30;24.50;;;;;;6280281;22;20236;-78
2024/02/09 11:43:43;;;;;;;8.33;8.03;;;14.30;24.20;;;;;;6278400;22;20432;-79
2024/02/09 11:46:09;;;;;;;9.80;9.20;;;14.30;23.80;;;;;;6291710;22;20185;-81
2024/02/09 11:48:38;;;;;;;9.70;8.93;;;14.30;23.70;;;;;;6274057;22;20389;-83
2024/02/09 11:51:04;;;;;;;13.47;12.60;;;14.30;23.80;;;;;;6302074;22;20459;-79
2024/02/09 11:53:29;;;;;;;8.37;7.90;;;14.40;24.10;;;;;;6302837;22;20385;-80
2024/02/09 11:55:55;;;;;;;7.90;7.60;;;14.40;25.10;;;;;;6302142;22;20194;-82
2024/02/09 11:58:21;;;;;;;9.37;8.97;;;14.40;23.90;;;;;;6301592;22;20158;-82
2024/02/09 12:00:50;;;;;;;7.67;7.37;;;14.40;23.90;;;;;;6297095;22;20170;-79
2024/02/09 12:03:15;;;;;;;9.07;8.67;;;14.40;23.50;;;;;;6250752;22;20158;-78
2024/02/09 12:05:42;;;;;;;8.87;8.47;;;14.40;23.80;;;;;;6251399;22;20543;-80
2024/02/09 12:08:07;;;;;;;9.93;9.53;;;14.50;24.70;;;;;;6251599;22;20166;-79
2024/02/09 12:10:36;;;;;;;9.27;8.80;;;14.50;23.50;;;;;;6277806;22;20740;-81
2024/02/09 12:13:01;;;;;;;9.37;8.97;;;14.40;23.40;;;;;;6277253;22;20477;-79
2024/02/09 12:15:29;;;;;;;9.03;8.43;;;14.30;23.60;;;;;;6249431;22;20433;-79
2024/02/09 12:17:59;;;;;;;8.53;8.23;;;14.30;23.90;;;;;;6275259;22;20369;-78
2024/02/09 12:20:24;;;;;;;8.37;8.07;;;14.30;23.50;;;;;;6249230;22;20408;-77
2024/02/09 12:22:50;;;;;;;8.60;8.13;;;14.30;23.90;;;;;;6278063;22;20374;-78
2024/02/09 12:25:16;;;;;;;8.37;7.90;;;14.30;24.20;;;;;;6253186;22;20541;-80
2024/02/09 12:27:43;;;;;;;8.60;8.20;;;14.30;24.30;;;;;;6277318;22;20181;-78
2024/02/09 12:30:10;;;;;;;8.40;8.00;;;14.30;24.40;;;;;;6249294;22;20694;-78
2024/02/09 12:32:36;;;;;;;7.40;7.10;;;14.30;24.60;;;;;;6250375;22;20369;-79
2024/02/09 12:35:02;;;;;;;8.50;8.10;;;14.30;25.30;;;;;;6250682;22;20385;-79
2024/02/09 12:37:34;;;;;;;9.70;8.97;;;14.20;25.00;;;;;;6252495;22;20381;-82
2024/02/09 12:40:06;;;;;;;8.27;7.93;;;14.10;25.00;;;;;;6281280;22;20480;-81
2024/02/09 12:42:41;;;;;;;9.93;9.43;;;14.10;25.60;;;;;;6231153;22;20468;-82
2024/02/09 12:45:12;;;;;;;12.97;12.03;;;14.10;26.00;;;;;;6255398;22;20377;-81
2024/02/09 12:47:38;;;;;;;9.20;8.70;;;14.10;26.60;;;;;;6281520;22;20366;-78
2024/02/09 12:50:04;;;;;;;8.97;8.50;;;14.10;27.10;;;;;;6281972;22;20396;-79
2024/02/09 12:52:31;;;;;;;8.40;8.00;;;14.00;26.90;;;;;;6282448;22;20385;-79
2024/02/09 12:54:56;;;;;;;9.57;9.00;;;14.00;27.60;;;;;;6253560;22;20386;-78
2024/02/09 12:57:22;;;;;;;8.70;8.20;;;14.00;26.80;;;;;;6281792;22;20532;-79
2024/02/09 12:59:48;;;;;;;8.37;8.07;;;13.90;27.10;;;;;;6255417;22;20564;-79
2024/02/09 13:02:17;;;;;;;8.77;8.40;;;13.90;27.50;;;;;;6253185;22;20155;-81
2024/02/09 13:04:42;;;;;;;8.80;8.30;;;13.90;28.10;;;;;;6255073;22;20409;-79
2024/02/09 13:07:08;;;;;;;9.47;8.87;;;13.80;28.40;;;;;;6255317;22;20697;-79
2024/02/09 13:09:34;;;;;;;8.87;8.43;;;13.80;28.80;;;;;;6254401;22;20802;-79
2024/02/09 13:12:01;;;;;;;8.70;8.10;;;13.80;28.90;;;;;;6255191;22;20147;-79
2024/02/09 13:14:26;;;;;;;9.03;8.63;;;13.80;29.30;;;;;;6254850;22;20378;-79
2024/02/09 13:16:52;;;;;;;10.03;9.53;;;13.80;29.60;;;;;;6279514;22;20447;-78
2024/02/09 13:19:18;;;;;;;9.17;8.87;;;13.80;29.50;;;;;;6255173;22;20171;-79
2024/02/09 13:21:45;;;;;;;9.17;8.77;;;13.80;29.80;;;;;;6280599;22;20157;-79
2024/02/09 13:24:12;;;;;;;9.00;8.60;;;13.90;29.20;;;;;;6284495;22;20448;-79
2024/02/09 13:26:39;;;;;;;9.80;9.30;;;13.90;29.30;;;;;;6282975;22;20384;-79
2024/02/09 13:29:05;;;;;;;9.27;8.73;;;13.90;29.00;;;;;;6256991;22;20386;-79
2024/02/09 13:31:32;;;;;;;8.27;7.87;;;14.00;28.60;;;;;;6282536;22;20384;-79
2024/02/09 13:34:01;;;;;;;8.20;7.70;;;14.00;28.50;;;;;;6253362;22;20218;-79
2024/02/09 13:36:28;;;;;;;9.40;8.90;;;14.00;28.90;;;;;;6282652;22;20401;-79
2024/02/09 13:38:53;;;;;;;9.87;9.03;;;14.00;28.60;;;;;;6254467;22;20384;-79
2024/02/09 13:41:22;;;;;;;10.30;9.60;;;14.00;29.40;;;;;;6277413;22;20409;-78
2024/02/09 13:43:48;;;;;;;10.70;10.20;;;14.10;29.20;;;;;;6279191;22;20143;-79
2024/02/09 13:46:14;;;;;;;9.60;9.20;;;14.10;28.70;;;;;;6279265;22;20378;-78
2024/02/09 13:48:39;;;;;;;8.80;8.40;;;14.00;28.40;;;;;;6250091;22;20387;-78
2024/02/09 13:51:07;;;;;;;10.50;10.00;;;14.00;29.10;;;;;;6251508;22;20166;-78
2024/02/09 13:53:32;;;;;;;10.40;9.90;;;14.00;28.50;;;;;;6252354;22;20158;-78
2024/02/09 13:55:58;;;;;;;10.00;9.40;;;14.00;28.10;;;;;;6277761;22;20905;-78
2024/02/09 13:58:26;;;;;;;9.17;8.67;;;14.00;28.10;;;;;;6249974;22;20610;-78
2024/02/09 14:00:52;;;;;;;9.13;8.63;;;14.00;27.50;;;;;;6251784;22;20170;-79
2024/02/09 14:03:19;;;;;;;9.27;8.77;;;14.00;27.40;;;;;;6257867;22;20775;-79
2024/02/09 14:05:46;;;;;;;8.50;8.00;;;14.00;27.80;;;;;;6259470;22;20154;-79
2024/02/09 14:08:19;;;;;;;16.87;15.77;;;14.00;27.60;;;;;;6284552;22;20429;-79
2024/02/09 14:10:48;;;;;;;9.43;8.70;;;14.00;28.00;;;;;;6282820;22;20409;-79
2024/02/09 14:13:19;;;;;;;9.00;8.60;;;14.00;27.40;;;;;;6231795;22;20384;-79
2024/02/09 14:15:59;;;;;;;9.50;9.10;;;14.10;28.00;;;;;;6283364;22;20428;-79
2024/02/09 14:18:46;;;;;;;9.30;8.90;;;14.10;28.00;;;;;;6254651;22;20484;-79
2024/02/09 14:21:22;;;;;;;9.50;8.93;;;14.10;28.00;;;;;;6281728;22;20486;-79
2024/02/09 14:24:53;;;;;;;10.57;9.87;;;14.20;27.90;;;;;;6277474;22;20441;-79
2024/02/09 14:28:16;;;;;;;10.07;9.57;;;14.20;28.30;;;;;;6149871;23;20376;-79
2024/02/09 14:31:09;;;;;;;10.67;9.93;;;14.20;27.70;;;;;;6183027;23;20406;-78
2024/02/09 14:33:46;;;;;;;10.47;9.73;;;14.20;28.60;;;;;;6091807;23;20376;-78